Time;durP1;ratioP1;P1;durP2;ratioP2;P2;SDS_P1;SDS_P2;PMS_P1;PMS_P2;Temp;Humidity;BMP_temperature;BMP_pressure;BME280_temperature;BME280_humidity;BME280_pressure;Samples;Min_cycle;Max_cycle;Signal;HPM_P1;HPM_P2
2022/07/30 00:00:42;;;;;;;3.83;3.40;;;;;;;16.70;100.00;101812.00;5014811;28;20200;-72
2022/07/30 00:03:07;;;;;;;3.33;3.03;;;;;;;16.78;100.00;101810.13;5011290;28;20189;-72
2022/07/30 00:05:33;;;;;;;4.13;3.73;;;;;;;16.78;100.00;101810.13;5005359;28;20651;-74
2022/07/30 00:07:58;;;;;;;3.83;2.77;;;;;;;16.86;100.00;101809.88;5002615;28;20203;-71
2022/07/30 00:10:24;;;;;;;5.07;2.97;;;;;;;16.71;100.00;101807.44;5016080;28;20623;-72
2022/07/30 00:12:50;;;;;;;3.60;2.93;;;;;;;16.70;100.00;101803.06;5002014;28;26331;-70
2022/07/30 00:15:15;;;;;;;5.40;3.23;;;;;;;16.85;100.00;101814.47;4996791;28;20258;-70
2022/07/30 00:17:40;;;;;;;3.10;2.40;;;;;;;16.75;100.00;101824.06;5000576;28;20658;-70
2022/07/30 00:20:06;;;;;;;4.10;3.10;;;;;;;16.81;100.00;101807.84;4997999;28;20227;-70
2022/07/30 00:22:32;;;;;;;4.03;3.50;;;;;;;16.85;100.00;101808.22;4992052;28;20235;-73
2022/07/30 00:24:57;;;;;;;4.30;3.67;;;;;;;16.93;100.00;101814.22;5013064;28;20217;-71
2022/07/30 00:27:23;;;;;;;3.43;3.07;;;;;;;16.78;100.00;101804.69;5002088;28;20188;-71
2022/07/30 00:29:49;;;;;;;3.53;3.20;;;;;;;16.82;100.00;101795.13;4994779;28;20189;-71
2022/07/30 00:32:15;;;;;;;4.00;3.30;;;;;;;16.80;100.00;101789.06;5019244;28;20219;-71
2022/07/30 00:34:40;;;;;;;6.07;3.47;;;;;;;16.90;100.00;101809.25;5011082;28;20561;-72
2022/07/30 00:37:05;;;;;;;4.53;3.80;;;;;;;16.79;100.00;101799.09;5012701;28;20196;-71
2022/07/30 00:39:31;;;;;;;3.77;3.47;;;;;;;16.89;100.00;101796.75;5011774;28;20375;-71
2022/07/30 00:42:02;;;;;;;3.80;3.00;;;;;;;16.70;100.00;101795.75;5002197;28;20196;-71
2022/07/30 00:44:28;;;;;;;3.87;3.30;;;;;;;16.45;100.00;101716.31;4998560;28;20219;-71
2022/07/30 00:46:55;;;;;;;4.87;3.67;;;;;;;16.58;100.00;101789.38;5016221;28;20507;-71
2022/07/30 00:49:21;;;;;;;6.30;4.20;;;;;;;16.62;100.00;101795.19;5018672;28;20458;-73
2022/07/30 00:51:47;;;;;;;5.20;3.70;;;;;;;16.66;100.00;101796.41;4999945;28;21038;-71
2022/07/30 00:54:14;;;;;;;3.33;3.03;;;;;;;16.54;100.00;101792.72;5013807;28;20478;-72
2022/07/30 00:56:40;;;;;;;3.63;3.33;;;;;;;16.28;100.00;101775.53;5004724;28;20245;-71
2022/07/30 00:59:05;;;;;;;3.57;3.27;;;;;;;16.64;100.00;101787.69;5005556;28;20460;-71
2022/07/30 01:01:32;;;;;;;3.90;3.40;;;;;;;16.38;100.00;101767.78;5005236;28;20192;-70
2022/07/30 01:03:58;;;;;;;4.57;3.40;;;;;;;16.60;100.00;101786.44;5014369;28;20208;-71
2022/07/30 01:06:24;;;;;;;5.83;3.13;;;;;;;16.21;100.00;101761.19;5022723;28;20508;-72
2022/07/30 01:08:49;;;;;;;3.20;2.90;;;;;;;16.38;100.00;101792.16;5020340;28;20191;-71
2022/07/30 01:11:15;;;;;;;3.80;3.40;;;;;;;16.37;100.00;101803.19;5020164;28;20263;-71
2022/07/30 01:13:42;;;;;;;6.77;3.33;;;;;;;16.45;100.00;101795.66;5006179;28;20208;-71
2022/07/30 01:16:08;;;;;;;3.40;2.97;;;;;;;16.50;100.00;101792.31;5015103;28;20506;-71
2022/07/30 01:21:26;;;;;;;3.53;3.20;;;;;;;16.56;100.00;101788.75;5015894;28;20956;-71
2022/07/30 01:23:55;;;;;;;4.20;3.53;;;;;;;16.35;100.00;101789.88;5012387;28;22471;-71
2022/07/30 01:26:21;;;;;;;6.97;4.03;;;;;;;16.35;100.00;101778.22;5019449;28;20944;-72
2022/07/30 01:28:53;;;;;;;6.60;3.80;;;;;;;16.27;100.00;101782.00;5019560;28;20434;-71
2022/07/30 01:31:20;;;;;;;5.53;4.37;;;;;;;16.42;100.00;101779.00;5006019;28;20452;-71
2022/07/30 01:33:48;;;;;;;5.97;4.07;;;;;;;16.36;100.00;101782.59;5022954;28;20464;-72
2022/07/30 01:36:17;;;;;;;6.07;3.90;;;;;;;16.04;100.00;101723.75;5003555;28;20440;-71
2022/07/30 01:38:45;;;;;;;4.43;4.03;;;;;;;16.14;100.00;101750.41;4999049;28;20452;-71
2022/07/30 01:41:11;;;;;;;4.90;3.90;;;;;;;16.39;100.00;101780.28;5020680;28;20583;-71
2022/07/30 01:43:37;;;;;;;4.43;4.03;;;;;;;16.40;100.00;101779.25;5003439;28;20977;-72
2022/07/30 01:46:04;;;;;;;4.53;4.13;;;;;;;16.36;100.00;101775.28;4999944;28;20526;-71
2022/07/30 01:48:33;;;;;;;6.00;4.20;;;;;;;16.50;100.00;101765.22;5017942;28;20451;-71
2022/07/30 01:51:03;;;;;;;4.30;3.87;;;;;;;16.33;100.00;101773.00;5015955;28;20451;-71
2022/07/30 01:53:31;;;;;;;5.37;4.03;;;;;;;16.19;100.00;101774.94;5017300;28;20858;-70
2022/07/30 01:55:59;;;;;;;5.40;4.20;;;;;;;16.14;100.00;101768.50;5015119;28;21955;-71
2022/07/30 01:58:28;;;;;;;5.87;3.97;;;;;;;16.18;100.00;101775.16;4996764;28;20877;-71
2022/07/30 02:00:56;;;;;;;3.83;3.53;;;;;;;15.91;100.00;101759.00;5003899;28;20838;-72
2022/07/30 02:03:22;;;;;;;4.00;3.57;;;;;;;16.14;100.00;101761.22;5016762;28;20833;-71
2022/07/30 02:06:12;;;;;;;4.70;4.07;;;;;;;16.15;100.00;101754.75;5001128;28;20439;-71
2022/07/30 02:08:56;;;;;;;4.33;3.90;;;;;;;15.96;100.00;101756.47;4999821;28;20435;-71
2022/07/30 02:14:13;;;;;;;5.30;4.40;;;;;;;16.02;100.00;101760.19;5019297;28;20820;-71
2022/07/30 02:16:43;;;;;;;4.20;3.70;;;;;;;15.99;100.00;101757.91;5016059;28;20447;-71
2022/07/30 02:19:14;;;;;;;3.90;3.10;;;;;;;15.85;100.00;101751.69;5016898;28;20836;-70
2022/07/30 02:22:05;;;;;;;4.20;3.90;;;;;;;15.86;100.00;101756.09;5014347;28;20455;-72
2022/07/30 02:24:33;;;;;;;7.37;5.00;;;;;;;15.89;100.00;101757.53;5015920;28;20455;-70
2022/07/30 02:27:03;;;;;;;4.70;4.20;;;;;;;15.97;100.00;101752.72;5011042;28;20455;-71
2022/07/30 02:29:32;;;;;;;4.27;3.87;;;;;;;15.95;100.00;101741.28;5000605;28;20454;-71
2022/07/30 02:31:59;;;;;;;5.70;4.23;;;;;;;16.03;100.00;101740.22;5014354;28;21117;-70
2022/07/30 02:34:27;;;;;;;4.60;3.87;;;;;;;15.85;100.00;101730.06;5011470;28;20474;-71
2022/07/30 02:36:54;;;;;;;4.03;3.63;;;;;;;15.85;100.00;101734.66;5013176;28;21024;-71
2022/07/30 02:39:21;;;;;;;4.63;3.83;;;;;;;15.65;100.00;101730.09;5015669;28;20881;-71
2022/07/30 02:41:49;;;;;;;4.33;3.90;;;;;;;15.80;100.00;101746.13;5015584;28;20799;-71
2022/07/30 02:44:17;;;;;;;5.23;3.63;;;;;;;15.49;100.00;101698.91;5012662;28;20516;-71
2022/07/30 02:46:44;;;;;;;4.30;3.90;;;;;;;15.74;100.00;101736.16;5012256;28;20817;-72
2022/07/30 02:49:11;;;;;;;5.90;4.90;;;;;;;15.60;100.00;101728.00;5014913;28;20444;-70
2022/07/30 02:51:38;;;;;;;4.40;4.00;;;;;;;15.59;100.00;101726.34;5015450;28;20482;-71
2022/07/30 02:54:04;;;;;;;4.67;4.10;;;;;;;15.58;100.00;101732.78;5011173;28;20573;-71
2022/07/30 02:56:31;;;;;;;5.90;4.60;;;;;;;15.47;100.00;101717.19;5015673;28;20991;-71
2022/07/30 02:58:58;;;;;;;4.83;4.43;;;;;;;15.48;100.00;101729.69;5011784;28;20972;-71
2022/07/30 03:01:24;;;;;;;4.60;4.13;;;;;;;15.33;100.00;101745.28;5014142;28;20548;-71
2022/07/30 03:03:51;;;;;;;5.13;4.50;;;;;;;15.44;100.00;101744.66;5010975;28;21044;-71
2022/07/30 03:06:18;;;;;;;5.27;4.53;;;;;;;15.30;100.00;101730.34;5015000;28;20450;-70
2022/07/30 03:08:45;;;;;;;4.67;4.27;;;;;;;15.43;100.00;101723.25;5016798;28;20450;-72
2022/07/30 03:11:12;;;;;;;7.43;4.80;;;;;;;15.92;100.00;101746.28;5016886;28;20535;-71
2022/07/30 03:13:37;;;;;;;4.60;3.60;;;;;;;15.61;100.00;101750.47;4998034;28;21309;-70
2022/07/30 03:16:07;;;;;;;5.50;4.97;;;;;;;15.93;100.00;101750.66;5009944;28;20521;-72
2022/07/30 03:18:35;;;;;;;4.90;4.50;;;;;;;15.96;100.00;101747.53;5011793;28;20270;-71
2022/07/30 03:21:01;;;;;;;4.20;3.80;;;;;;;15.63;100.00;101734.88;5013755;28;20479;-71
2022/07/30 03:23:32;;;;;;;4.57;4.17;;;;;;;15.46;100.00;101722.84;5014005;28;20498;-71
2022/07/30 03:26:00;;;;;;;5.20;4.63;;;;;;;15.68;100.00;101743.22;5012222;28;20831;-71
2022/07/30 03:28:30;;;;;;;5.33;4.70;;;;;;;15.60;100.00;101719.91;5014804;28;20886;-71
2022/07/30 03:30:56;;;;;;;5.10;4.60;;;;;;;15.47;100.00;101732.59;5015698;28;20938;-71
2022/07/30 03:33:23;;;;;;;6.83;4.90;;;;;;;15.40;100.00;101735.31;5012997;28;20467;-71
2022/07/30 03:35:50;;;;;;;5.87;5.30;;;;;;;15.33;100.00;101747.97;5013328;28;20892;-71
2022/07/30 03:38:16;;;;;;;6.47;5.77;;;;;;;15.46;100.00;101750.69;5015527;28;20457;-71
2022/07/30 03:40:44;;;;;;;8.10;5.80;;;;;;;15.27;100.00;101751.53;5010728;28;20450;-71
2022/07/30 03:43:11;;;;;;;5.63;5.10;;;;;;;15.13;100.00;101738.03;5018767;28;20611;-71
2022/07/30 03:45:41;;;;;;;6.73;5.33;;;;;;;15.14;100.00;101755.06;5020037;28;20815;-70
2022/07/30 03:48:08;;;;;;;6.63;5.50;;;;;;;15.20;100.00;101758.81;5018163;28;20435;-70
2022/07/30 03:50:38;;;;;;;10.97;5.63;;;;;;;15.24;100.00;101746.53;5018137;28;20442;-71
2022/07/30 03:53:05;;;;;;;5.70;4.90;;;;;;;15.40;100.00;101751.53;5021678;28;20553;-71
2022/07/30 03:55:31;;;;;;;5.60;5.07;;;;;;;15.19;100.00;101725.56;5020235;28;20443;-71
2022/07/30 03:57:57;;;;;;;6.43;5.77;;;;;;;15.23;100.00;101743.00;5020938;28;20466;-71
2022/07/30 04:00:23;;;;;;;5.77;5.17;;;;;;;15.25;100.00;101750.91;5019436;28;20502;-72
2022/07/30 04:02:48;;;;;;;5.57;5.07;;;;;;;15.15;100.00;101749.44;5022111;28;20669;-70
2022/07/30 04:05:15;;;;;;;6.80;5.30;;;;;;;15.27;100.00;101748.81;5016722;28;20226;-71
2022/07/30 04:07:41;;;;;;;5.77;5.00;;;;;;;15.19;100.00;101724.69;5019324;28;20188;-70
2022/07/30 04:10:08;;;;;;;5.33;4.83;;;;;;;15.20;100.00;101758.81;5018840;28;20435;-70
2022/07/30 04:12:34;;;;;;;5.67;5.17;;;;;;;14.87;100.00;101732.59;5015994;28;20199;-70
2022/07/30 04:15:00;;;;;;;7.20;5.80;;;;;;;15.17;100.00;101767.34;5020895;28;20463;-70
2022/07/30 04:17:40;;;;;;;6.37;5.77;;;;;;;15.21;100.00;101768.56;5001480;28;20439;-71
2022/07/30 04:20:16;;;;;;;4.73;4.33;;;;;;;15.42;100.00;101773.78;5018395;28;20201;-72
2022/07/30 04:22:43;;;;;;;6.00;5.40;;;;;;;15.32;100.00;101747.16;5022875;28;20419;-72
2022/07/30 04:25:09;;;;;;;5.23;4.73;;;;;;;15.28;100.00;101761.31;5004478;28;20481;-71
2022/07/30 04:27:36;;;;;;;7.43;5.37;;;;;;;15.23;100.00;101770.03;5005995;28;20806;-71
2022/07/30 04:30:03;;;;;;;6.43;5.80;;;;;;;15.43;100.00;101782.72;5019816;28;20439;-70
2022/07/30 04:32:29;;;;;;;5.20;4.70;;;;;;;15.31;100.00;101777.94;5020291;28;21224;-70
2022/07/30 04:34:55;;;;;;;4.93;4.50;;;;;;;15.24;100.00;101781.66;5021141;28;20467;-71
2022/07/30 04:37:23;;;;;;;5.97;5.37;;;;;;;15.36;100.00;101782.72;5022456;28;20546;-71
2022/07/30 04:39:56;;;;;;;5.10;4.70;;;;;;;15.44;100.00;101777.09;5007037;28;20551;-71
2022/07/30 04:42:23;;;;;;;6.30;5.70;;;;;;;15.13;100.00;101766.91;5004988;28;20478;-71
2022/07/30 04:44:48;;;;;;;5.90;4.90;;;;;;;15.42;100.00;101783.75;5021928;28;20454;-73
2022/07/30 04:47:15;;;;;;;4.97;4.40;;;;;;;15.53;100.00;101766.91;5022259;28;20451;-70
2022/07/30 04:49:41;;;;;;;6.10;5.50;;;;;;;15.71;100.00;101780.66;5003650;28;20188;-71
2022/07/30 04:52:09;;;;;;;5.27;4.73;;;;;;;15.76;100.00;101783.56;5020654;28;20479;-71
2022/07/30 04:54:55;;;;;;;5.90;4.70;;;;;;;15.68;100.00;101786.50;5020207;28;20468;-71
2022/07/30 04:57:23;;;;;;;5.30;4.80;;;;;;;15.38;100.00;101762.53;5020691;28;20579;-71
2022/07/30 04:59:48;;;;;;;4.90;4.27;;;;;;;15.60;100.00;101786.69;5018713;28;20490;-70
2022/07/30 05:02:15;;;;;;;5.43;4.93;;;;;;;15.52;100.00;101787.72;5002735;28;20526;-71
2022/07/30 05:04:41;;;;;;;4.60;4.13;;;;;;;15.62;100.00;101794.56;5017006;28;20586;-70
2022/07/30 05:07:07;;;;;;;4.77;4.37;;;;;;;15.60;100.00;101790.22;5014763;28;20451;-71
2022/07/30 05:09:33;;;;;;;4.77;4.30;;;;;;;15.80;100.00;101790.22;5015391;28;20967;-71
2022/07/30 05:11:59;;;;;;;6.20;4.80;;;;;;;15.68;100.00;101788.34;5015586;28;20986;-72
2022/07/30 05:14:25;;;;;;;5.03;4.40;;;;;;;15.85;100.00;101800.41;5016646;28;20557;-71
2022/07/30 05:16:52;;;;;;;4.20;3.80;;;;;;;16.09;100.00;101801.63;5017195;28;20207;-71
2022/07/30 05:19:18;;;;;;;9.70;5.80;;;;;;;15.89;100.00;101811.66;5016538;28;20481;-71
2022/07/30 05:21:44;;;;;;;5.10;4.60;;;;;;;15.93;100.00;101802.06;5004590;28;20952;-70
2022/07/30 05:24:09;;;;;;;4.70;4.30;;;;;;;15.80;100.00;101784.00;5018998;28;20473;-71
2022/07/30 05:26:35;;;;;;;6.10;4.77;;;;;;;15.83;100.00;101775.44;5016731;28;20654;-71
2022/07/30 05:29:00;;;;;;;4.93;4.43;;;;;;;15.95;100.00;101795.41;5018122;28;20283;-71
2022/07/30 05:31:26;;;;;;;14.33;4.87;;;;;;;16.14;100.00;101809.94;5019635;28;20201;-70
2022/07/30 05:33:51;;;;;;;4.30;3.90;;;;;;;16.20;100.00;101792.00;5015901;28;20395;-71
2022/07/30 05:36:18;;;;;;;4.60;4.20;;;;;;;16.17;100.00;101814.06;5019335;28;20254;-70
2022/07/30 05:38:43;;;;;;;5.17;4.17;;;;;;;16.18;100.00;101796.81;5016824;28;20200;-71
2022/07/30 05:41:09;;;;;;;5.23;4.80;;;;;;;16.22;100.00;101803.44;5019332;28;20561;-70
2022/07/30 05:43:34;;;;;;;4.80;4.30;;;;;;;16.45;100.00;101809.19;5021233;28;20228;-71
2022/07/30 05:46:00;;;;;;;4.80;4.40;;;;;;;16.34;100.00;101787.38;5011775;28;20193;-71
2022/07/30 05:48:26;;;;;;;5.80;5.30;;;;;;;16.35;100.00;101776.34;5017385;28;20184;-71
2022/07/30 05:50:52;;;;;;;5.00;4.30;;;;;;;16.58;100.00;101813.75;5021069;28;20193;-70
2022/07/30 05:53:17;;;;;;;5.30;4.23;;;;;;;16.76;100.00;101806.78;5016748;28;20957;-71
2022/07/30 05:55:43;;;;;;;5.87;4.63;;;;;;;16.53;100.00;101785.63;5014573;28;21896;-71
2022/07/30 05:58:08;;;;;;;5.03;4.53;;;;;;;16.73;100.00;101810.75;4992246;28;20267;-71
2022/07/30 06:00:34;;;;;;;4.63;4.13;;;;;;;16.62;100.00;101782.47;5020021;28;20204;-71
2022/07/30 06:03:00;;;;;;;6.17;4.50;;;;;;;16.88;100.00;101811.31;5015523;28;20188;-71
2022/07/30 06:05:27;;;;;;;5.23;4.37;;;;;;;16.94;100.00;101812.34;5013136;28;20276;-72
2022/07/30 06:07:52;;;;;;;5.40;4.53;;;;;;;17.07;100.00;101778.91;5016506;28;20451;-70
2022/07/30 06:10:18;;;;;;;6.33;5.20;;;;;;;17.35;100.00;101792.84;5014937;28;20443;-71
2022/07/30 06:12:43;;;;;;;6.13;4.93;;;;;;;17.34;100.00;101795.81;5016236;28;20665;-71
2022/07/30 06:15:10;;;;;;;6.03;5.43;;;;;;;17.40;100.00;101801.16;5004485;28;20709;-70
2022/07/30 06:17:40;;;;;;;5.43;4.93;;;;;;;17.51;100.00;101798.81;5001107;28;20185;-71
2022/07/30 06:20:06;;;;;;;5.60;5.00;;;;;;;17.44;100.00;101798.84;5013467;28;20472;-71
2022/07/30 06:22:32;;;;;;;6.10;5.10;;;;;;;17.57;100.00;101795.19;5017209;28;20500;-71
2022/07/30 06:24:57;;;;;;;7.03;5.67;;;;;;;17.65;100.00;101796.78;5016404;28;20733;-73
2022/07/30 06:27:22;;;;;;;6.87;5.90;;;;;;;17.54;100.00;101765.81;5014736;28;20185;-71
2022/07/30 06:29:48;;;;;;;11.63;6.67;;;;;;;17.52;100.00;101774.16;5014245;28;20191;-70
2022/07/30 06:32:13;;;;;;;10.90;6.40;;;;;;;17.61;100.00;101772.00;5015193;28;20199;-71
2022/07/30 06:34:39;;;;;;;8.10;5.60;;;;;;;17.87;100.00;101789.94;5019080;28;20587;-72
2022/07/30 06:37:04;;;;;;;7.43;5.57;;;;;;;17.83;100.00;101794.97;5013793;28;20190;-71
2022/07/30 06:39:30;;;;;;;8.70;6.37;;;;;;;17.71;100.00;101774.22;5003651;28;20231;-72
2022/07/30 06:41:55;;;;;;;9.60;7.37;;;;;;;17.88;100.00;101794.31;5004805;28;20197;-71
2022/07/30 06:44:21;;;;;;;7.13;6.40;;;;;;;17.96;100.00;101791.28;5016638;28;20586;-72
2022/07/30 06:46:46;;;;;;;9.47;6.20;;;;;;;17.80;100.00;101765.59;5017336;28;20581;-70
2022/07/30 06:49:11;;;;;;;14.77;9.00;;;;;;;17.83;100.00;101776.00;5017701;28;20303;-71
2022/07/30 06:51:37;;;;;;;8.70;7.33;;;;;;;18.06;100.00;101807.09;5015975;28;20214;-71
2022/07/30 06:54:02;;;;;;;7.73;6.10;;;;;;;17.97;100.00;101781.28;5010380;28;20258;-70
2022/07/30 06:56:28;;;;;;;5.40;4.90;;;;;;;18.13;100.00;101785.28;5011389;28;20194;-72
2022/07/30 06:58:53;;;;;;;8.93;6.60;;;;;;;18.35;100.00;101786.50;5013730;28;20219;-68
2022/07/30 07:01:20;;;;;;;13.23;6.97;;;;;;;18.52;100.00;101800.28;5016870;28;20246;-69
2022/07/30 07:03:45;;;;;;;6.50;5.77;;;;;;;18.66;100.00;101799.06;5015358;28;20212;-71
2022/07/30 07:06:11;;;;;;;6.50;5.90;;;;;;;18.69;100.00;101801.31;5017570;28;20826;-71
2022/07/30 07:08:37;;;;;;;8.63;6.10;;;;;;;18.65;100.00;101793.84;5009463;28;20242;-71
2022/07/30 07:11:02;;;;;;;7.53;6.30;;;;;;;18.62;100.00;101769.84;5013855;28;20210;-72
2022/07/30 07:13:28;;;;;;;9.00;6.60;;;;;;;18.59;100.00;101779.28;5017542;28;20459;-70
2022/07/30 07:15:53;;;;;;;8.13;5.33;;;;;;;18.78;100.00;101784.72;5000612;28;20189;-71
2022/07/30 07:18:18;;;;;;;5.67;4.30;;;;;;;18.61;100.00;101747.28;5011900;28;20191;-70
2022/07/30 07:20:45;;;;;;;8.20;5.07;;;;;;;18.89;100.00;101789.34;4999277;28;20188;-71
2022/07/30 07:23:11;;;;;;;10.43;5.50;;;;;;;18.95;100.00;101786.56;4999691;28;20211;-71
